createdAt,value
2022-09-12T00:01:51.594Z,14.13
2022-09-12T00:04:18.442Z,14.12
2022-09-12T00:06:45.210Z,13.95
2022-09-12T00:09:13.809Z,14.01
2022-09-12T00:11:44.064Z,14.01
2022-09-12T00:14:14.703Z,14.00
2022-09-12T00:16:42.859Z,14.01
2022-09-12T00:19:10.915Z,14.00
2022-09-12T00:21:39.747Z,13.80
2022-09-12T00:24:07.486Z,13.91
2022-09-12T00:26:34.353Z,13.84
2022-09-12T00:29:01.117Z,13.82
2022-09-12T00:31:28.459Z,13.84
2022-09-12T00:33:58.084Z,13.81
2022-09-12T00:36:25.871Z,13.60
2022-09-12T00:38:53.682Z,13.76
2022-09-12T00:41:26.466Z,13.72
2022-09-12T00:44:01.408Z,13.67
2022-09-12T00:46:48.720Z,13.69
2022-09-12T00:49:29.972Z,13.64
2022-09-12T00:52:08.460Z,13.48
2022-09-12T00:55:01.731Z,13.54
2022-09-12T00:57:36.089Z,13.45
2022-09-12T01:00:15.804Z,13.38
2022-09-12T01:02:49.386Z,13.35
2022-09-12T01:05:16.406Z,13.24
2022-09-12T01:07:44.717Z,13.24
2022-09-12T01:10:11.603Z,13.23
2022-09-12T01:12:42.130Z,13.24
2022-09-12T01:15:09.241Z,13.20
2022-09-12T01:18:11.483Z,13.24
2022-09-12T01:21:11.195Z,13.18
2022-09-12T01:24:16.712Z,13.13
2022-09-12T01:26:52.275Z,13.08
2022-09-12T01:29:28.185Z,13.03
2022-09-12T01:32:01.554Z,13.00
2022-09-12T01:34:53.953Z,12.87
2022-09-12T01:37:33.041Z,12.95
2022-09-12T01:40:16.255Z,12.88
2022-09-12T01:43:03.270Z,12.96
2022-09-12T01:45:46.806Z,12.97
2022-09-12T01:48:20.481Z,12.95
2022-09-12T01:51:06.189Z,12.92
2022-09-12T01:53:42.408Z,12.88
2022-09-12T01:56:29.790Z,12.93
2022-09-12T01:59:08.025Z,12.91
2022-09-12T02:01:55.067Z,12.89
2022-09-12T02:04:44.686Z,12.81
2022-09-12T02:07:18.305Z,12.82
2022-09-12T02:09:50.325Z,12.73
2022-09-12T02:12:22.060Z,12.71
2022-09-12T02:14:55.729Z,12.66
2022-09-12T02:17:24.759Z,12.63
2022-09-12T02:20:06.384Z,12.62
2022-09-12T02:22:35.786Z,12.54
2022-09-12T02:25:05.365Z,12.53
2022-09-12T02:27:44.718Z,12.45
2022-09-12T02:30:14.698Z,12.50
2022-09-12T02:32:52.278Z,12.36
2022-09-12T02:35:51.320Z,12.47
2022-09-12T02:38:26.783Z,12.33
2022-09-12T02:40:54.449Z,12.24
2022-09-12T02:43:21.230Z,12.32
2022-09-12T02:45:48.703Z,12.28
2022-09-12T02:48:27.031Z,12.25
2022-09-12T02:50:54.566Z,12.23
2022-09-12T02:53:22.457Z,12.18
2022-09-12T02:55:50.181Z,12.10
2022-09-12T02:58:21.167Z,12.09
2022-09-12T03:01:05.478Z,12.08
2022-09-12T03:04:00.266Z,12.03
2022-09-12T03:06:52.696Z,12.00
2022-09-12T03:18:32.912Z,11.73
2022-09-12T03:21:43.338Z,11.73
2022-09-12T03:24:21.196Z,11.72
2022-09-12T03:26:55.423Z,11.75
2022-09-12T03:29:24.696Z,11.75
2022-09-12T03:31:57.285Z,11.73
2022-09-12T03:34:26.248Z,11.48
2022-09-12T03:36:55.466Z,11.65
2022-09-12T03:39:27.237Z,11.62
2022-09-12T03:41:55.006Z,11.58
2022-09-12T03:44:22.163Z,11.54
2022-09-12T03:46:48.940Z,11.64
2022-09-12T03:49:15.951Z,11.61
2022-09-12T03:51:43.294Z,11.60
2022-09-12T03:54:11.798Z,11.66
2022-09-12T03:56:39.430Z,11.64
2022-09-12T03:59:06.837Z,11.73
2022-09-12T04:01:34.507Z,11.64
2022-09-12T04:04:01.747Z,11.60
2022-09-12T04:06:28.546Z,11.64
2022-09-12T04:08:55.583Z,11.66
2022-09-12T04:11:23.765Z,11.61
2022-09-12T04:13:50.684Z,11.59
2022-09-12T04:16:18.994Z,11.60
2022-09-12T04:18:46.794Z,11.70
2022-09-12T04:21:19.643Z,11.62
2022-09-12T04:23:46.455Z,11.61
2022-09-12T04:26:15.239Z,11.57
2022-09-12T04:28:42.263Z,11.66
2022-09-12T04:31:13.321Z,11.80
2022-09-12T04:33:40.153Z,11.73
2022-09-12T04:36:09.757Z,11.85
2022-09-12T04:38:37.473Z,11.84
2022-09-12T04:41:24.876Z,11.93
2022-09-12T04:43:54.179Z,11.94
2022-09-12T04:46:21.633Z,11.90
2022-09-12T04:48:53.254Z,11.90
2022-09-12T04:51:28.191Z,11.90
2022-09-12T04:53:58.739Z,11.83
2022-09-12T04:56:26.931Z,11.92
2022-09-12T04:58:53.781Z,11.98
2022-09-12T05:01:22.522Z,11.93
2022-09-12T05:03:50.751Z,11.99
2022-09-12T05:06:24.058Z,12.10
2022-09-12T05:08:52.260Z,12.21
2022-09-12T05:11:33.014Z,12.21
2022-09-12T05:14:08.320Z,12.38
2022-09-12T05:16:35.321Z,12.41
2022-09-12T05:19:02.437Z,12.43
2022-09-12T05:21:29.453Z,12.51
2022-09-12T05:23:59.648Z,12.51
2022-09-12T05:26:26.625Z,12.61
2022-09-12T05:28:53.875Z,12.67
2022-09-12T05:31:23.465Z,12.69
2022-09-12T05:33:53.062Z,12.75
2022-09-12T05:36:25.308Z,12.82
2022-09-12T05:38:52.489Z,12.80
2022-09-12T05:41:24.822Z,12.95
2022-09-12T05:43:57.702Z,13.01
2022-09-12T05:46:29.682Z,13.06
2022-09-12T05:48:57.348Z,13.08
2022-09-12T05:51:26.991Z,13.19
2022-09-12T05:53:56.933Z,13.25
2022-09-12T05:56:28.936Z,13.35
2022-09-12T05:59:00.316Z,13.37
2022-09-12T06:01:28.136Z,13.48
2022-09-12T06:03:57.892Z,13.56
2022-09-12T06:06:25.704Z,13.61
2022-09-12T06:08:56.010Z,13.74
2022-09-12T06:11:26.766Z,13.82
2022-09-12T06:13:53.603Z,13.87
2022-09-12T06:16:22.665Z,13.94
2022-09-12T06:18:51.962Z,14.06
2022-09-12T06:21:19.683Z,14.16
2022-09-12T06:23:48.167Z,14.22
2022-09-12T06:26:17.472Z,14.32
2022-09-12T06:28:45.677Z,14.38
2022-09-12T06:31:15.352Z,14.42
2022-09-12T06:33:46.091Z,14.64
2022-09-12T06:36:18.772Z,14.69
2022-09-12T06:38:51.445Z,14.78
2022-09-12T06:41:18.333Z,14.84
2022-09-12T06:43:45.096Z,14.81
2022-09-12T06:46:13.196Z,14.84
2022-09-12T06:48:42.135Z,14.78
2022-09-12T06:51:13.330Z,14.74
2022-09-12T06:53:41.050Z,14.79
2022-09-12T06:56:11.488Z,14.91
2022-09-12T06:58:38.553Z,14.81
2022-09-12T07:01:10.314Z,15.05
2022-09-12T07:03:38.347Z,15.05
2022-09-12T07:06:07.898Z,15.38
2022-09-12T07:08:37.127Z,15.39
2022-09-12T07:11:13.105Z,15.51
2022-09-12T07:13:41.444Z,15.63
2022-09-12T07:16:10.586Z,15.76
2022-09-12T07:18:39.067Z,15.83
2022-09-12T07:21:08.562Z,15.96
2022-09-12T07:23:35.579Z,16.06
2022-09-12T07:26:02.768Z,16.07
2022-09-12T07:28:32.636Z,16.16
2022-09-12T07:31:06.517Z,16.21
2022-09-12T07:33:33.639Z,16.20
2022-09-12T07:36:06.428Z,16.37
2022-09-12T07:38:33.239Z,16.49
2022-09-12T07:41:01.794Z,16.56
2022-09-12T07:43:28.674Z,16.62
2022-09-12T07:45:56.967Z,16.86
2022-09-12T07:48:23.926Z,17.04
2022-09-12T07:51:05.999Z,17.33
2022-09-12T07:53:35.258Z,17.50
2022-09-12T07:56:03.198Z,17.46
2022-09-12T07:58:31.270Z,17.27
2022-09-12T08:01:08.870Z,17.22
2022-09-12T08:03:36.408Z,17.56
2022-09-12T08:06:07.607Z,17.86
2022-09-12T08:08:34.581Z,18.09
2022-09-12T08:11:05.991Z,18.28
2022-09-12T08:13:34.762Z,18.09
2022-09-12T08:16:04.699Z,18.18
2022-09-12T08:18:32.733Z,18.39
2022-09-12T08:21:01.406Z,18.80
2022-09-12T08:23:29.344Z,18.90
2022-09-12T08:26:06.077Z,19.15
2022-09-12T08:28:35.426Z,18.79
2022-09-12T08:31:07.735Z,18.77
2022-09-12T08:33:35.355Z,18.74
2022-09-12T08:36:07.660Z,18.69
2022-09-12T08:38:35.770Z,18.93
2022-09-12T08:41:20.802Z,19.08
2022-09-12T08:43:59.574Z,19.23
2022-09-12T08:46:38.764Z,19.52
2022-09-12T08:49:11.169Z,19.55
2022-09-12T08:51:39.893Z,19.63
2022-09-12T08:54:19.653Z,19.80
2022-09-12T08:56:48.297Z,19.74
2022-09-12T08:59:15.739Z,19.66
2022-09-12T09:01:45.522Z,19.54
2022-09-12T09:04:21.653Z,19.22
2022-09-12T09:06:58.341Z,19.25
2022-09-12T09:10:08.357Z,19.17
2022-09-12T09:12:37.912Z,19.46
2022-09-12T09:15:24.809Z,19.20
2022-09-12T09:18:04.597Z,19.16
2022-09-12T09:20:51.679Z,19.48
2022-09-12T09:23:31.857Z,19.29
2022-09-12T09:26:14.813Z,19.11
2022-09-12T09:28:51.660Z,19.27
2022-09-12T09:31:22.113Z,19.27
2022-09-12T09:33:57.301Z,19.22
2022-09-12T09:36:49.524Z,19.11
2022-09-12T09:39:25.796Z,19.05
2022-09-12T09:42:17.066Z,18.93
2022-09-12T09:44:48.349Z,18.74
2022-09-12T09:47:15.792Z,18.66
2022-09-12T09:49:42.881Z,18.75
2022-09-12T09:52:15.144Z,18.94
2022-09-12T09:54:50.288Z,19.06
2022-09-12T09:57:35.014Z,19.22
2022-09-12T10:00:28.654Z,19.42
2022-09-12T10:03:14.528Z,19.68
2022-09-12T10:05:50.829Z,19.61
2022-09-12T10:08:22.496Z,19.53
2022-09-12T10:11:04.497Z,19.49
2022-09-12T10:13:39.839Z,19.50
2022-09-12T10:16:19.708Z,19.79
2022-09-12T10:18:46.777Z,19.72
2022-09-12T10:21:35.239Z,19.63
2022-09-12T10:24:26.885Z,19.54
2022-09-12T10:27:09.810Z,19.65
2022-09-12T10:29:45.775Z,19.76
2022-09-12T10:32:36.232Z,19.82
2022-09-12T10:35:09.126Z,20.01
2022-09-12T10:37:39.530Z,19.70
2022-09-12T10:40:20.802Z,19.75
2022-09-12T10:42:52.088Z,19.72
2022-09-12T10:45:21.749Z,19.58
2022-09-12T10:47:49.371Z,19.47
2022-09-12T10:50:41.427Z,19.42
2022-09-12T10:53:32.258Z,19.36
2022-09-12T10:56:13.122Z,19.49
2022-09-12T10:58:45.752Z,19.53
2022-09-12T11:01:20.940Z,19.24
2022-09-12T11:03:53.791Z,19.24
2022-09-12T11:06:31.904Z,19.20
2022-09-12T11:09:04.525Z,19.12
2022-09-12T11:11:32.121Z,19.31
2022-09-12T11:14:29.881Z,19.71
2022-09-12T11:17:09.710Z,19.92
2022-09-12T11:19:54.975Z,20.07
2022-09-12T11:22:46.632Z,20.23
2022-09-12T11:25:35.137Z,19.89
2022-09-12T11:28:15.888Z,19.99
2022-09-12T11:31:12.116Z,19.96
2022-09-12T11:33:46.856Z,20.12
2022-09-12T11:36:39.670Z,20.22
2022-09-12T11:39:16.334Z,20.65
2022-09-12T11:41:54.582Z,20.84
2022-09-12T11:44:26.551Z,21.06
2022-09-12T11:46:53.285Z,21.20
2022-09-12T11:49:35.415Z,21.06
2022-09-12T11:52:18.613Z,20.72
2022-09-12T11:55:01.226Z,20.80
2022-09-12T11:57:30.932Z,21.35
2022-09-12T12:00:20.578Z,21.66
2022-09-12T12:02:59.253Z,21.50
2022-09-12T12:05:52.223Z,21.26
2022-09-12T12:08:21.323Z,21.23
2022-09-12T12:10:53.987Z,21.42
2022-09-12T12:13:30.198Z,21.55
2022-09-12T12:16:04.182Z,21.35
2022-09-12T12:18:32.778Z,21.42
2022-09-12T12:21:28.482Z,21.45
2022-09-12T12:24:22.825Z,21.87
2022-09-12T12:27:04.659Z,22.21
2022-09-12T12:29:32.772Z,22.57
2022-09-12T12:31:59.505Z,23.01
2022-09-12T12:34:37.722Z,23.44
2022-09-12T12:37:19.923Z,23.19
2022-09-12T12:39:52.714Z,23.07
2022-09-12T12:42:39.642Z,23.05
2022-09-12T12:45:09.292Z,23.02
2022-09-12T12:47:36.004Z,23.12
2022-09-12T12:50:08.054Z,23.32
2022-09-12T12:52:49.813Z,22.97
2022-09-12T12:55:23.420Z,22.59
2022-09-12T12:57:53.941Z,22.89
2022-09-12T13:00:20.631Z,22.77
2022-09-12T13:02:56.351Z,22.85
2022-09-12T13:05:26.128Z,22.87
2022-09-12T13:08:02.891Z,22.62
2022-09-12T13:10:30.786Z,22.82
2022-09-12T13:13:02.269Z,22.28
2022-09-12T13:15:37.977Z,21.24
2022-09-12T13:18:11.265Z,20.72
2022-09-12T13:20:49.981Z,20.47
2022-09-12T13:23:29.149Z,20.08
2022-09-12T13:25:58.291Z,20.14
2022-09-12T13:28:28.791Z,20.04
2022-09-12T13:31:03.195Z,19.99
2022-09-12T13:33:42.396Z,19.60
2022-09-12T13:36:27.478Z,19.49
2022-09-12T13:39:02.821Z,19.40
2022-09-12T13:41:53.366Z,19.52
2022-09-12T13:44:23.038Z,19.60
2022-09-12T13:46:51.109Z,19.84
2022-09-12T13:49:33.124Z,19.89
2022-09-12T13:52:01.432Z,20.30
2022-09-12T13:54:29.663Z,21.26
2022-09-12T13:56:56.968Z,21.75
2022-09-12T13:59:24.697Z,22.32
2022-09-12T14:01:51.628Z,22.03
2022-09-12T14:04:39.298Z,21.91
2022-09-12T14:07:25.754Z,22.37
2022-09-12T14:09:58.419Z,21.50
2022-09-12T14:12:27.227Z,21.36
2022-09-12T14:14:54.279Z,21.25
2022-09-12T14:17:39.632Z,20.96
2022-09-12T14:20:12.359Z,20.53
2022-09-12T14:22:41.471Z,20.02
2022-09-12T14:25:16.322Z,19.92
2022-09-12T14:27:47.725Z,20.04
2022-09-12T14:30:36.567Z,21.04
2022-09-12T14:33:12.299Z,21.81
2022-09-12T14:35:43.623Z,22.03
2022-09-12T14:38:16.812Z,21.78
2022-09-12T14:40:46.465Z,21.93
2022-09-12T14:43:27.872Z,22.16
2022-09-12T14:46:00.542Z,22.38
2022-09-12T14:48:35.678Z,22.54
2022-09-12T14:51:03.732Z,22.63
2022-09-12T14:53:34.977Z,22.51
2022-09-12T14:56:13.152Z,22.24
2022-09-12T14:58:41.009Z,22.00
2022-09-12T15:01:08.083Z,21.79
2022-09-12T15:03:49.989Z,21.85
2022-09-12T15:06:38.548Z,21.24
2022-09-12T15:09:13.673Z,21.63
2022-09-12T15:11:40.399Z,21.74
2022-09-12T15:14:13.502Z,21.29
2022-09-12T15:16:40.500Z,20.40
2022-09-12T15:19:07.227Z,19.70
2022-09-12T15:21:34.029Z,19.41
2022-09-12T15:24:00.890Z,19.26
2022-09-12T15:26:30.589Z,19.12
2022-09-12T15:28:57.719Z,18.98
2022-09-12T15:31:26.249Z,18.78
2022-09-12T15:33:54.569Z,18.65
2022-09-12T15:36:23.588Z,18.67
2022-09-12T15:38:51.524Z,18.57
2022-09-12T15:41:21.579Z,18.40
2022-09-12T15:43:48.704Z,18.24
2022-09-12T15:46:17.568Z,18.06
2022-09-12T15:48:44.390Z,17.91
2022-09-12T15:51:16.071Z,17.87
2022-09-12T15:53:43.612Z,17.79
2022-09-12T15:56:10.532Z,17.80
2022-09-12T15:58:49.782Z,17.58
2022-09-12T16:01:24.525Z,17.48
2022-09-12T16:03:52.815Z,17.47
2022-09-12T16:06:19.611Z,17.35
2022-09-12T16:08:46.326Z,17.29
2022-09-12T16:11:26.676Z,17.25
2022-09-12T16:13:54.410Z,17.19
2022-09-12T16:16:21.258Z,17.17
2022-09-12T16:18:48.198Z,17.09
2022-09-12T16:21:15.859Z,16.98
2022-09-12T16:23:46.113Z,16.94
2022-09-12T16:26:12.905Z,16.93
2022-09-12T16:28:40.286Z,16.96
2022-09-12T16:31:10.726Z,16.77
2022-09-12T16:33:38.790Z,16.88
2022-09-12T16:36:13.383Z,16.85
2022-09-12T16:38:51.899Z,16.83
2022-09-12T16:41:21.420Z,16.74
2022-09-12T16:43:48.659Z,16.83
2022-09-12T16:46:28.755Z,16.76
2022-09-12T16:48:57.492Z,16.81
2022-09-12T16:51:27.300Z,16.79
2022-09-12T16:53:55.310Z,16.74
2022-09-12T16:56:22.456Z,16.77
2022-09-12T16:58:49.477Z,16.72
2022-09-12T17:01:24.161Z,16.63
2022-09-12T17:03:56.705Z,16.65
2022-09-12T17:06:25.182Z,16.53
2022-09-12T17:08:53.660Z,16.53
2022-09-12T17:11:26.963Z,16.48
2022-09-12T17:14:05.500Z,16.42
2022-09-12T17:16:35.516Z,16.37
2022-09-12T17:19:03.300Z,16.32
2022-09-12T17:21:30.223Z,16.28
2022-09-12T17:23:57.304Z,16.29
2022-09-12T17:26:25.356Z,16.29
2022-09-12T17:28:52.166Z,16.11
2022-09-12T17:31:18.998Z,16.24
2022-09-12T17:33:45.934Z,16.23
2022-09-12T17:36:16.347Z,16.21
2022-09-12T17:38:44.858Z,16.20
2022-09-12T17:41:18.039Z,16.13
2022-09-12T17:43:47.146Z,16.08
2022-09-12T17:46:14.062Z,15.96
2022-09-12T17:48:41.670Z,15.99
2022-09-12T17:51:10.344Z,15.94
2022-09-12T17:53:37.205Z,15.84
2022-09-12T17:56:05.300Z,15.86
2022-09-12T17:58:32.977Z,15.81
2022-09-12T18:01:24.096Z,15.80
2022-09-12T18:03:55.669Z,15.74
2022-09-12T18:06:23.696Z,15.62
2022-09-12T18:08:50.895Z,15.53
2022-09-12T18:11:17.845Z,15.38
2022-09-12T18:13:44.838Z,15.31
2022-09-12T18:16:13.360Z,15.29
2022-09-12T18:18:40.334Z,15.21
2022-09-12T18:21:10.251Z,15.09
2022-09-12T18:23:37.369Z,15.04
2022-09-12T18:26:07.216Z,15.02
2022-09-12T18:28:39.987Z,14.95
2022-09-12T18:31:12.459Z,14.92
2022-09-12T18:33:39.207Z,14.89
2022-09-12T18:36:07.057Z,14.83
2022-09-12T18:38:33.925Z,14.73
2022-09-12T18:41:07.499Z,14.79
2022-09-12T18:43:34.578Z,14.77
2022-09-12T18:46:05.932Z,14.67
2022-09-12T18:48:33.665Z,14.66
2022-09-12T18:51:12.796Z,14.63
2022-09-12T18:53:39.592Z,14.54
2022-09-12T18:56:09.100Z,14.39
2022-09-12T18:58:37.738Z,14.46
2022-09-12T19:01:20.620Z,14.47
2022-09-12T19:03:48.055Z,14.46
2022-09-12T19:06:20.722Z,14.49
2022-09-12T19:08:49.296Z,14.58
2022-09-12T19:11:17.354Z,14.63
2022-09-12T19:13:46.422Z,14.66
2022-09-12T19:16:19.904Z,14.74
2022-09-12T19:18:50.403Z,14.76
2022-09-12T19:21:22.201Z,14.76
2022-09-12T19:23:49.719Z,14.78
2022-09-12T19:26:17.835Z,14.77
2022-09-12T19:28:45.364Z,14.77
2022-09-12T19:31:14.632Z,14.79
2022-09-12T19:33:41.811Z,14.75
2022-09-12T19:36:40.870Z,14.80
2022-09-12T19:39:00.509Z,14.82
2022-09-12T19:41:28.650Z,14.75
2022-09-12T19:43:56.417Z,14.81
2022-09-12T19:46:25.442Z,14.78
2022-09-12T19:48:52.951Z,14.68
2022-09-12T19:51:21.535Z,14.70
2022-09-12T19:53:50.322Z,14.64
2022-09-12T19:56:20.694Z,14.65
2022-09-12T19:58:53.737Z,14.57
2022-09-12T20:01:30.246Z,14.52
2022-09-12T20:03:58.085Z,14.48
2022-09-12T20:06:27.366Z,14.46
2022-09-12T20:08:55.014Z,14.49
2022-09-12T20:11:23.995Z,14.36
2022-09-12T20:13:51.295Z,14.34
2022-09-12T20:16:21.986Z,14.36
2022-09-12T20:18:54.809Z,14.41
2022-09-12T20:21:25.391Z,14.37
2022-09-12T20:23:52.467Z,14.31
2022-09-12T20:26:20.401Z,14.32
2022-09-12T20:28:47.514Z,14.23
2022-09-12T20:31:16.479Z,14.28
2022-09-12T20:33:47.510Z,14.24
2022-09-12T20:36:19.089Z,14.22
2022-09-12T20:38:51.630Z,14.23
2022-09-12T20:41:20.064Z,14.20
2022-09-12T20:43:54.754Z,14.12
2022-09-12T20:46:23.191Z,14.13
2022-09-12T20:48:51.122Z,14.08
2022-09-12T20:51:19.555Z,14.05
2022-09-12T20:53:47.042Z,13.98
2022-09-12T20:56:15.176Z,13.90
2022-09-12T20:58:44.444Z,13.78
2022-09-12T21:01:14.003Z,13.68
2022-09-12T21:03:42.709Z,13.66
2022-09-12T21:06:12.509Z,13.58
2022-09-12T21:08:40.314Z,13.45
2022-09-12T21:11:07.865Z,13.33
2022-09-12T21:13:35.292Z,13.31
2022-09-12T21:16:08.364Z,13.16
2022-09-12T21:18:36.049Z,13.15
2022-09-12T21:21:04.010Z,13.15
2022-09-12T21:23:31.044Z,13.12
2022-09-12T21:26:02.101Z,13.07
2022-09-12T21:28:28.961Z,12.99
2022-09-12T21:30:56.278Z,12.94
2022-09-12T21:33:23.582Z,12.82
2022-09-12T21:35:50.285Z,12.74
2022-09-12T21:38:18.740Z,12.69
2022-09-12T21:40:46.733Z,12.63
2022-09-12T21:43:14.492Z,12.58
2022-09-12T21:45:41.236Z,12.48
2022-09-12T21:48:08.304Z,12.42
2022-09-12T21:50:35.170Z,12.42
2022-09-12T21:53:02.019Z,12.31
2022-09-12T21:55:28.722Z,12.31
2022-09-12T21:57:55.893Z,12.26
2022-09-12T22:00:22.938Z,12.20
2022-09-12T22:02:49.900Z,12.19
2022-09-12T22:05:17.442Z,12.11
2022-09-12T22:07:44.711Z,12.04
2022-09-12T22:10:11.550Z,11.84
2022-09-12T22:12:40.776Z,12.01
2022-09-12T22:15:36.264Z,11.95
2022-09-12T22:17:57.622Z,11.85
2022-09-12T22:20:24.496Z,11.76
2022-09-12T22:23:09.917Z,11.69
2022-09-12T22:25:36.816Z,11.63
2022-09-12T22:28:03.837Z,11.60
2022-09-12T22:30:31.773Z,11.61
2022-09-12T22:32:58.711Z,11.63
2022-09-12T22:35:25.630Z,11.65
2022-09-12T22:37:52.354Z,11.66
2022-09-12T22:40:19.689Z,11.69
2022-09-12T22:42:46.534Z,11.69
2022-09-12T22:45:13.448Z,11.69
2022-09-12T22:47:40.141Z,11.64
2022-09-12T22:50:07.307Z,11.70
2022-09-12T22:52:34.038Z,11.69
2022-09-12T22:55:00.805Z,11.72
2022-09-12T22:57:27.512Z,11.79
2022-09-12T22:59:54.223Z,11.83
2022-09-12T23:02:21.005Z,11.80
2022-09-12T23:04:48.307Z,11.74
2022-09-12T23:07:15.070Z,11.67
2022-09-12T23:09:42.117Z,11.60
2022-09-12T23:12:08.949Z,11.52
2022-09-12T23:14:35.741Z,11.46
2022-09-12T23:17:02.990Z,11.23
2022-09-12T23:19:29.721Z,11.33
2022-09-12T23:21:56.406Z,11.31
2022-09-12T23:24:23.162Z,11.23
2022-09-12T23:26:49.873Z,11.24
2022-09-12T23:29:16.808Z,11.18
2022-09-12T23:31:43.877Z,11.20
2022-09-12T23:34:10.687Z,11.18
2022-09-12T23:36:37.586Z,11.15
2022-09-12T23:39:05.049Z,11.15
2022-09-12T23:41:32.034Z,11.23
2022-09-12T23:43:58.964Z,11.22
2022-09-12T23:46:25.706Z,11.17
2022-09-12T23:48:53.630Z,11.06
2022-09-12T23:51:21.921Z,11.05
2022-09-12T23:53:49.230Z,11.02
2022-09-12T23:56:16.210Z,10.94
2022-09-12T23:58:42.969Z,10.93
